Time;durP1;ratioP1;P1;durP2;ratioP2;P2;SDS_P1;SDS_P2;PMS_P1;PMS_P2;Temp;Humidity;BMP_temperature;BMP_pressure;BME280_temperature;BME280_humidity;BME280_pressure;Samples;Min_cycle;Max_cycle;Signal;HPM_P1;HPM_P2
2022/06/24 00:02:21;;;;;;;10.00;4.83;;;26.40;63.80;;;;;;5074009;28;20472;-68
2022/06/24 00:04:52;;;;;;;14.27;5.80;;;26.30;63.90;;;;;;5073527;28;20989;-68
2022/06/24 00:07:19;;;;;;;11.97;4.90;;;26.30;64.50;;;;;;5073912;28;20494;-68
2022/06/24 00:09:46;;;;;;;14.20;5.90;;;26.20;64.70;;;;;;5074002;28;20441;-68
2022/06/24 00:12:16;;;;;;;18.37;6.37;;;26.20;65.40;;;;;;5073839;28;20421;-68
2022/06/24 00:14:46;;;;;;;11.80;5.17;;;26.10;65.70;;;;;;5073633;28;20555;-68
2022/06/24 00:17:14;;;;;;;11.90;5.30;;;26.10;66.30;;;;;;5073429;28;20957;-68
2022/06/24 00:19:55;;;;;;;9.90;4.43;;;26.10;66.30;;;;;;5073401;28;20852;-68
2022/06/24 00:22:22;;;;;;;11.00;5.40;;;25.90;67.10;;;;;;5073712;28;20467;-68
2022/06/24 00:24:49;;;;;;;6.50;4.87;;;25.90;68.20;;;;;;5073737;28;20473;-68
2022/06/24 00:27:19;;;;;;;8.13;4.90;;;25.70;69.00;;;;;;5073733;28;20444;-68
2022/06/24 00:29:47;;;;;;;9.33;4.97;;;25.60;70.40;;;;;;5073995;28;20470;-68
2022/06/24 00:32:14;;;;;;;5.90;4.60;;;25.40;71.50;;;;;;5073855;28;20445;-68
2022/06/24 00:34:41;;;;;;;9.50;5.03;;;25.30;73.40;;;;;;5073413;28;20978;-68
2022/06/24 00:37:25;;;;;;;6.10;4.60;;;25.10;75.40;;;;;;5073451;28;21002;-68
2022/06/24 00:39:53;;;;;;;6.30;4.63;;;24.90;78.20;;;;;;5073336;28;20788;-68
2022/06/24 00:42:23;;;;;;;8.33;4.90;;;24.80;79.80;;;;;;5073253;28;21085;-68
2022/06/24 00:44:54;;;;;;;5.53;4.30;;;24.70;81.00;;;;;;5072874;28;20837;-68
2022/06/24 00:47:23;;;;;;;15.13;4.90;;;24.70;82.30;;;;;;5073539;28;20805;-68
2022/06/24 00:49:52;;;;;;;5.47;3.90;;;24.70;82.60;;;;;;5073511;28;20519;-68
2022/06/24 00:52:18;;;;;;;7.50;5.20;;;24.80;82.70;;;;;;5073275;28;20441;-68
2022/06/24 00:54:46;;;;;;;8.47;4.17;;;24.90;83.30;;;;;;5073068;28;20836;-69
2022/06/24 00:57:13;;;;;;;7.50;4.37;;;24.90;82.90;;;;;;5073672;28;20448;-69
2022/06/24 00:59:42;;;;;;;8.67;5.50;;;24.90;83.10;;;;;;5073530;28;20459;-69
2022/06/24 01:02:11;;;;;;;12.07;5.40;;;25.00;83.70;;;;;;5073291;28;20484;-69
2022/06/24 01:04:38;;;;;;;13.77;5.57;;;25.10;84.70;;;;;;5073290;28;20476;-68
2022/06/24 01:07:05;;;;;;;10.27;4.90;;;25.00;85.20;;;;;;5073013;28;20450;-68
2022/06/24 01:09:32;;;;;;;13.20;4.37;;;25.00;85.60;;;;;;5073223;28;20440;-69
2022/06/24 01:11:58;;;;;;;7.20;5.20;;;24.90;87.00;;;;;;5073262;28;20447;-69
2022/06/24 01:14:25;;;;;;;8.50;4.80;;;24.70;86.40;;;;;;5073272;28;20468;-69
2022/06/24 01:16:53;;;;;;;8.03;4.63;;;24.70;87.60;;;;;;5073421;28;20432;-69
2022/06/24 01:19:20;;;;;;;7.10;4.87;;;24.70;88.10;;;;;;5073480;28;20444;-69
2022/06/24 01:21:50;;;;;;;8.07;4.97;;;24.60;87.90;;;;;;5072942;28;20445;-69
2022/06/24 01:24:19;;;;;;;5.43;3.70;;;24.60;88.20;;;;;;5073152;28;20472;-69
2022/06/24 01:26:48;;;;;;;6.27;4.40;;;24.60;87.90;;;;;;5073271;28;20818;-69
2022/06/24 01:29:15;;;;;;;6.43;3.13;;;24.60;87.70;;;;;;5073179;28;20456;-69
2022/06/24 01:31:43;;;;;;;5.30;2.80;;;24.50;86.90;;;;;;5073393;28;20444;-69
2022/06/24 01:34:10;;;;;;;5.00;3.17;;;24.50;87.30;;;;;;5073110;28;20495;-69
2022/06/24 01:36:38;;;;;;;9.37;4.17;;;24.40;87.70;;;;;;5073265;28;20444;-70
2022/06/24 01:39:06;;;;;;;4.53;3.30;;;24.30;87.90;;;;;;5073115;28;20476;-70
2022/06/24 01:41:33;;;;;;;3.13;2.63;;;24.30;87.20;;;;;;5073066;28;20445;-70
2022/06/24 01:44:01;;;;;;;10.33;3.33;;;24.20;87.80;;;;;;5073012;28;20470;-70
2022/06/24 01:46:28;;;;;;;5.80;3.40;;;24.10;88.60;;;;;;5072741;28;20960;-71
2022/06/24 01:48:55;;;;;;;3.77;2.63;;;24.10;89.30;;;;;;5073029;28;20448;-71
2022/06/24 01:51:24;;;;;;;6.40;3.20;;;24.00;89.40;;;;;;5073002;28;20445;-71
2022/06/24 01:53:51;;;;;;;3.70;2.80;;;23.90;90.00;;;;;;5072553;28;20492;-71
2022/06/24 01:56:19;;;;;;;6.40;3.37;;;23.90;90.10;;;;;;5076343;28;20798;-72
2022/06/24 01:58:46;;;;;;;4.13;3.70;;;23.90;90.10;;;;;;5076645;28;20451;-72
2022/06/24 02:01:12;;;;;;;6.50;2.77;;;23.80;90.50;;;;;;5076418;28;20452;-72
2022/06/24 02:03:39;;;;;;;7.27;3.87;;;23.70;90.80;;;;;;5076610;28;20987;-72
2022/06/24 02:06:11;;;;;;;4.50;4.10;;;23.60;91.10;;;;;;5076866;28;20447;-72
2022/06/24 02:08:38;;;;;;;9.97;4.37;;;23.50;91.50;;;;;;5076846;28;20433;-72
2022/06/24 02:13:50;;;;;;;9.10;5.70;;;23.30;92.30;;;;;;5076694;28;20436;-71
2022/06/24 02:16:20;;;;;;;5.30;4.83;;;23.20;92.40;;;;;;5076317;28;20501;-73
2022/06/24 02:18:47;;;;;;;8.20;5.27;;;23.20;92.50;;;;;;5076252;28;20899;-71
2022/06/24 02:21:14;;;;;;;7.37;6.70;;;23.30;92.60;;;;;;5075959;28;20812;-72
2022/06/24 02:23:41;;;;;;;6.30;5.67;;;23.20;92.80;;;;;;5075999;28;20492;-71
2022/06/24 02:26:08;;;;;;;8.90;5.60;;;23.10;92.90;;;;;;5076012;28;20455;-71
2022/06/24 02:28:35;;;;;;;6.23;5.60;;;23.10;93.20;;;;;;5076015;28;20453;-72
2022/06/24 02:31:03;;;;;;;6.33;5.80;;;23.10;93.30;;;;;;5075938;28;20459;-72
2022/06/24 02:33:30;;;;;;;6.33;5.83;;;23.10;93.30;;;;;;5075828;28;20484;-72
2022/06/24 02:35:57;;;;;;;6.57;5.97;;;23.00;93.50;;;;;;5075861;28;20458;-72
2022/06/24 02:38:24;;;;;;;9.07;7.10;;;23.00;93.80;;;;;;5075878;28;20468;-71
2022/06/24 02:40:52;;;;;;;7.00;6.33;;;22.90;93.80;;;;;;5075742;28;20432;-71
2022/06/24 02:43:23;;;;;;;7.40;6.90;;;22.90;94.50;;;;;;5075620;28;20489;-71
2022/06/24 02:45:51;;;;;;;7.47;6.73;;;22.80;94.30;;;;;;5075966;28;20448;-72
2022/06/24 02:48:20;;;;;;;8.90;6.60;;;22.70;94.50;;;;;;5075568;28;20929;-72
2022/06/24 02:50:49;;;;;;;7.80;7.10;;;22.70;95.20;;;;;;5075598;28;20451;-72
2022/06/24 02:53:17;;;;;;;9.40;7.60;;;22.70;95.20;;;;;;5075031;28;20460;-72
2022/06/24 02:55:45;;;;;;;8.23;7.37;;;22.70;95.20;;;;;;5075490;28;20470;-72
2022/06/24 02:58:12;;;;;;;7.80;7.10;;;22.60;95.50;;;;;;5075452;28;20463;-72
2022/06/24 03:00:41;;;;;;;9.30;8.00;;;22.50;95.40;;;;;;5075404;28;20459;-72
2022/06/24 03:03:08;;;;;;;8.80;7.90;;;22.50;95.80;;;;;;5075258;28;20494;-72
2022/06/24 03:05:37;;;;;;;9.40;8.10;;;22.50;95.80;;;;;;5075234;28;20532;-72
2022/06/24 03:08:04;;;;;;;8.70;8.00;;;22.50;96.00;;;;;;5074714;28;20455;-72
2022/06/24 03:10:31;;;;;;;9.33;8.53;;;22.50;96.20;;;;;;5076118;28;20448;-72
2022/06/24 03:12:58;;;;;;;9.47;8.50;;;22.60;96.10;;;;;;5075101;28;20468;-72
2022/06/24 03:15:25;;;;;;;9.27;8.37;;;22.60;96.00;;;;;;5074855;28;20984;-72
2022/06/24 03:17:52;;;;;;;10.80;7.90;;;22.70;95.90;;;;;;5075246;28;20444;-72
2022/06/24 03:20:19;;;;;;;8.57;7.83;;;22.80;95.60;;;;;;5075071;28;20444;-72
2022/06/24 03:22:47;;;;;;;10.07;9.07;;;22.90;95.30;;;;;;5074773;28;20551;-72
2022/06/24 03:25:14;;;;;;;8.13;7.50;;;23.00;95.40;;;;;;5074911;28;20440;-72
2022/06/24 03:27:41;;;;;;;9.27;8.27;;;23.00;95.10;;;;;;5074732;28;20452;-72
2022/06/24 03:30:10;;;;;;;9.10;8.20;;;23.20;95.00;;;;;;5075574;28;20445;-72
2022/06/24 03:32:37;;;;;;;10.60;8.70;;;23.20;94.90;;;;;;5074761;28;20425;-72
2022/06/24 03:35:05;;;;;;;9.43;8.70;;;23.30;94.70;;;;;;5075031;28;20449;-72
2022/06/24 03:37:32;;;;;;;9.30;7.50;;;23.30;94.50;;;;;;5074375;28;20946;-72
2022/06/24 03:40:01;;;;;;;8.83;7.93;;;23.30;94.30;;;;;;5074534;28;20448;-72
2022/06/24 03:42:28;;;;;;;8.90;7.70;;;23.40;94.30;;;;;;5074380;28;20445;-72
2022/06/24 03:44:56;;;;;;;9.00;8.27;;;23.40;94.20;;;;;;5074072;28;20479;-72
2022/06/24 03:47:23;;;;;;;8.07;7.37;;;23.40;94.30;;;;;;5074542;28;20448;-72
2022/06/24 03:49:50;;;;;;;7.87;7.07;;;23.50;94.20;;;;;;5074351;28;20467;-72
2022/06/24 03:52:18;;;;;;;10.33;9.43;;;23.50;94.00;;;;;;5074004;28;20852;-71
2022/06/24 03:54:45;;;;;;;10.20;9.23;;;23.60;94.00;;;;;;5073888;28;20487;-72
2022/06/24 03:57:13;;;;;;;11.17;10.17;;;23.70;94.10;;;;;;5073903;28;20902;-72
2022/06/24 03:59:40;;;;;;;10.00;8.50;;;23.70;93.30;;;;;;5074159;28;20474;-72
2022/06/24 04:02:07;;;;;;;9.00;8.20;;;23.70;93.40;;;;;;5074022;28;20444;-71
2022/06/24 04:04:34;;;;;;;13.37;9.53;;;23.70;93.20;;;;;;5073869;28;20492;-71
2022/06/24 04:07:00;;;;;;;9.13;8.53;;;23.80;93.30;;;;;;5073769;28;20950;-72
2022/06/24 04:09:27;;;;;;;8.73;7.93;;;23.80;93.20;;;;;;5074026;28;20452;-71
2022/06/24 04:11:54;;;;;;;9.70;8.90;;;23.90;93.30;;;;;;5073968;28;20456;-72
2022/06/24 04:17:04;;;;;;;10.33;9.50;;;24.00;93.20;;;;;;5072771;28;20456;-72
2022/06/24 04:19:31;;;;;;;10.70;9.77;;;24.00;93.10;;;;;;5073067;28;20444;-72
2022/06/24 04:21:57;;;;;;;11.13;9.30;;;24.10;93.10;;;;;;5073898;28;20441;-72
2022/06/24 04:24:24;;;;;;;10.37;8.80;;;24.10;92.90;;;;;;5073783;28;20496;-72
2022/06/24 04:26:51;;;;;;;10.40;9.60;;;24.10;93.00;;;;;;5073796;28;20440;-72
2022/06/24 04:29:18;;;;;;;11.60;10.50;;;24.10;92.80;;;;;;5073697;28;20449;-71
2022/06/24 04:31:46;;;;;;;11.83;10.60;;;24.10;92.70;;;;;;5073345;28;20941;-72
2022/06/24 04:34:12;;;;;;;10.30;9.50;;;24.20;92.70;;;;;;5073846;28;20491;-72
2022/06/24 04:36:39;;;;;;;10.17;9.37;;;24.20;92.70;;;;;;5073885;28;20437;-72
2022/06/24 04:39:06;;;;;;;10.73;9.70;;;24.20;92.60;;;;;;5073947;28;20441;-70
2022/06/24 04:41:33;;;;;;;11.20;10.10;;;24.10;92.70;;;;;;5073665;28;20444;-70
2022/06/24 04:43:59;;;;;;;11.27;10.27;;;24.00;92.80;;;;;;5073498;28;20492;-70
2022/06/24 04:46:26;;;;;;;10.63;9.70;;;23.80;92.90;;;;;;5073914;28;20429;-71
2022/06/24 04:48:54;;;;;;;12.87;11.67;;;23.70;93.00;;;;;;5074798;28;20824;-70
2022/06/24 04:51:21;;;;;;;15.03;11.77;;;23.60;93.50;;;;;;5074795;28;20432;-70
2022/06/24 04:53:48;;;;;;;11.53;10.37;;;23.50;93.70;;;;;;5075916;28;20488;-70
2022/06/24 04:56:14;;;;;;;12.87;11.70;;;23.50;94.00;;;;;;5074343;28;20459;-70
2022/06/24 04:58:41;;;;;;;13.63;11.30;;;23.40;94.10;;;;;;5073757;28;20449;-70
2022/06/24 05:01:08;;;;;;;12.40;10.37;;;23.40;94.10;;;;;;5073360;28;20463;-70
2022/06/24 05:03:34;;;;;;;9.57;8.63;;;23.40;94.60;;;;;;5073292;28;20856;-70
2022/06/24 05:06:03;;;;;;;9.03;6.83;;;23.50;94.60;;;;;;5073448;28;20445;-70
2022/06/24 05:08:29;;;;;;;15.33;7.90;;;23.50;94.80;;;;;;5073361;28;20449;-71
2022/06/24 05:10:56;;;;;;;8.00;6.90;;;23.50;94.80;;;;;;5073378;28;20451;-70
2022/06/24 05:13:23;;;;;;;11.73;7.70;;;23.60;94.80;;;;;;5073264;28;20846;-70
2022/06/24 05:15:49;;;;;;;11.33;7.00;;;23.70;94.80;;;;;;5073364;28;20457;-70
2022/06/24 05:18:16;;;;;;;10.00;6.17;;;23.70;94.60;;;;;;5073214;28;20455;-70
2022/06/24 05:20:43;;;;;;;9.70;6.70;;;23.70;94.40;;;;;;5073538;28;20440;-70
2022/06/24 05:23:12;;;;;;;7.70;5.87;;;23.70;94.40;;;;;;5072965;28;20495;-70
2022/06/24 05:25:39;;;;;;;7.90;5.20;;;23.60;94.40;;;;;;5073228;28;20445;-70
2022/06/24 05:28:06;;;;;;;11.10;7.33;;;23.60;94.40;;;;;;5073275;28;20444;-70
2022/06/24 05:30:33;;;;;;;8.37;6.10;;;23.70;94.50;;;;;;5075256;28;20917;-70
2022/06/24 05:32:59;;;;;;;10.77;6.83;;;23.70;94.30;;;;;;5076790;28;20996;-70
2022/06/24 05:35:26;;;;;;;9.13;6.40;;;23.70;94.30;;;;;;5077001;28;20448;-70
2022/06/24 05:37:53;;;;;;;6.97;5.37;;;23.70;94.10;;;;;;5076550;28;20949;-70
2022/06/24 05:40:21;;;;;;;8.50;6.70;;;23.70;94.00;;;;;;5076620;28;20440;-70
2022/06/24 05:42:48;;;;;;;10.83;6.73;;;23.80;94.00;;;;;;5076785;28;20456;-70
2022/06/24 05:45:15;;;;;;;8.40;6.87;;;23.80;93.80;;;;;;5076869;28;20439;-70
2022/06/24 05:47:42;;;;;;;8.83;6.57;;;23.80;93.80;;;;;;5077158;28;20448;-70
2022/06/24 05:50:09;;;;;;;8.27;5.70;;;23.80;93.70;;;;;;5076819;28;20451;-70
2022/06/24 05:55:22;;;;;;;7.00;6.40;;;23.70;93.60;;;;;;5076645;28;20498;-70
2022/06/24 05:57:49;;;;;;;10.00;6.77;;;23.70;93.70;;;;;;5076870;28;20452;-70
2022/06/24 06:00:16;;;;;;;9.20;6.87;;;23.70;93.90;;;;;;5076935;28;20441;-71
2022/06/24 06:02:43;;;;;;;8.43;7.13;;;23.70;93.90;;;;;;5076714;28;20432;-70
2022/06/24 06:05:10;;;;;;;7.87;6.83;;;23.60;94.10;;;;;;5076147;28;21011;-70
2022/06/24 06:07:36;;;;;;;11.60;7.83;;;23.60;94.40;;;;;;5076461;28;20441;-70
2022/06/24 06:10:04;;;;;;;10.97;7.33;;;23.50;94.60;;;;;;5076337;28;20463;-70
2022/06/24 06:12:34;;;;;;;11.50;7.57;;;23.50;94.60;;;;;;5076632;28;20435;-70
2022/06/24 06:15:01;;;;;;;11.77;8.40;;;23.40;94.70;;;;;;5076868;28;20421;-70
2022/06/24 06:17:28;;;;;;;10.60;8.10;;;23.40;94.90;;;;;;5075954;28;20806;-70
2022/06/24 06:19:54;;;;;;;10.50;8.90;;;23.30;95.00;;;;;;5076216;28;20449;-70
2022/06/24 06:22:21;;;;;;;11.87;9.23;;;23.20;94.90;;;;;;5076076;28;20452;-70
2022/06/24 06:24:48;;;;;;;10.70;9.60;;;23.20;95.00;;;;;;5075951;28;20484;-70
2022/06/24 06:27:15;;;;;;;12.17;10.03;;;23.10;95.30;;;;;;5076053;28;20459;-70
2022/06/24 06:29:43;;;;;;;12.40;11.10;;;23.00;95.60;;;;;;5075633;28;20449;-70
2022/06/24 06:32:09;;;;;;;12.00;10.90;;;22.90;96.00;;;;;;5075697;28;20832;-70
2022/06/24 06:34:36;;;;;;;12.60;10.53;;;22.70;96.20;;;;;;5075625;28;21007;-70
2022/06/24 06:37:04;;;;;;;11.77;10.60;;;22.60;96.60;;;;;;5075832;28;20455;-70
2022/06/24 06:39:30;;;;;;;11.83;9.80;;;22.40;97.00;;;;;;5075839;28;20448;-70
2022/06/24 06:41:57;;;;;;;10.57;9.47;;;22.40;97.30;;;;;;5074797;28;20942;-70
2022/06/24 06:44:24;;;;;;;10.70;9.67;;;22.30;97.40;;;;;;5075594;28;20480;-70
2022/06/24 06:46:52;;;;;;;17.13;10.77;;;22.30;97.50;;;;;;5075518;28;20436;-70
2022/06/24 06:49:19;;;;;;;11.03;9.63;;;22.20;97.60;;;;;;5075777;28;20459;-70
2022/06/24 06:51:46;;;;;;;14.70;9.93;;;22.10;97.90;;;;;;5075675;28;20440;-71
2022/06/24 06:54:13;;;;;;;15.80;9.57;;;22.10;98.50;;;;;;5075582;28;20473;-70
2022/06/24 06:56:40;;;;;;;11.97;10.73;;;22.00;98.50;;;;;;5075532;28;20495;-70
2022/06/24 06:59:07;;;;;;;11.00;10.00;;;21.90;98.70;;;;;;5075753;28;20509;-70
2022/06/24 07:01:34;;;;;;;11.23;10.10;;;21.90;99.00;;;;;;5076734;28;20445;-70
2022/06/24 07:04:02;;;;;;;11.90;10.63;;;21.80;99.40;;;;;;5075455;28;20488;-70
2022/06/24 07:06:28;;;;;;;11.70;10.70;;;21.80;99.30;;;;;;5075446;28;20444;-70
2022/06/24 07:08:55;;;;;;;13.03;11.73;;;21.80;99.60;;;;;;5075626;28;20433;-70
2022/06/24 07:11:22;;;;;;;11.20;10.30;;;21.80;99.70;;;;;;5075351;28;20448;-70
2022/06/24 07:13:49;;;;;;;10.73;9.73;;;21.70;99.70;;;;;;5075103;28;20464;-70
2022/06/24 07:16:16;;;;;;;10.70;9.60;;;21.70;99.70;;;;;;5075290;28;20484;-70
2022/06/24 07:18:42;;;;;;;10.43;9.37;;;21.70;99.90;;;;;;5075152;28;20444;-69
2022/06/24 07:21:13;;;;;;;9.47;7.90;;;21.60;99.60;;;;;;5075095;28;20456;-69
2022/06/24 07:23:40;;;;;;;7.37;6.53;;;21.60;99.40;;;;;;5074713;28;20852;-70
2022/06/24 07:26:07;;;;;;;6.27;5.67;;;21.60;99.10;;;;;;5075346;28;20429;-70
2022/06/24 07:28:35;;;;;;;8.10;7.03;;;21.60;99.40;;;;;;5075937;28;20443;-70
2022/06/24 07:31:01;;;;;;;8.13;7.30;;;21.60;99.30;;;;;;5075849;28;20902;-70
2022/06/24 07:33:28;;;;;;;9.03;8.10;;;21.70;99.40;;;;;;5077050;28;20483;-70
2022/06/24 07:35:55;;;;;;;10.20;9.30;;;21.80;99.30;;;;;;5075155;28;20439;-70
2022/06/24 07:38:23;;;;;;;10.87;9.97;;;21.90;99.40;;;;;;5074707;28;20463;-70
2022/06/24 07:40:51;;;;;;;11.80;10.60;;;21.90;99.50;;;;;;5074573;28;20452;-70
2022/06/24 07:43:18;;;;;;;11.80;10.80;;;22.10;99.30;;;;;;5074192;28;20468;-70
2022/06/24 07:45:45;;;;;;;12.30;11.30;;;22.20;99.60;;;;;;5074763;28;20456;-70
2022/06/24 07:48:11;;;;;;;12.77;11.50;;;22.30;99.10;;;;;;5074611;28;20452;-70
2022/06/24 07:50:38;;;;;;;10.60;9.60;;;22.50;98.80;;;;;;5074472;28;20460;-70
2022/06/24 07:53:05;;;;;;;10.17;9.27;;;22.60;98.20;;;;;;5073743;28;20464;-70
2022/06/24 07:58:17;;;;;;;11.50;9.37;;;22.70;97.50;;;;;;5074110;28;20408;-70
2022/06/24 08:00:44;;;;;;;8.37;7.60;;;22.80;97.60;;;;;;5074533;28;20445;-70
2022/06/24 08:03:11;;;;;;;6.60;6.00;;;23.10;97.20;;;;;;5074130;28;20472;-70
2022/06/24 08:05:38;;;;;;;6.60;5.83;;;23.10;96.20;;;;;;5074151;28;20518;-70
2022/06/24 08:08:05;;;;;;;5.37;4.83;;;23.20;96.00;;;;;;5073812;28;20950;-70
2022/06/24 08:10:33;;;;;;;5.57;4.87;;;23.20;94.70;;;;;;5074122;28;20425;-70
2022/06/24 08:13:00;;;;;;;4.50;4.07;;;23.20;95.30;;;;;;5073953;28;20491;-70
2022/06/24 08:15:27;;;;;;;4.70;4.30;;;23.10;95.00;;;;;;5073946;28;20551;-70
2022/06/24 08:17:54;;;;;;;4.40;4.10;;;23.20;95.20;;;;;;5073967;28;20456;-70
2022/06/24 08:20:21;;;;;;;5.17;4.67;;;23.20;95.50;;;;;;5073932;28;20449;-70
2022/06/24 08:22:47;;;;;;;3.93;3.63;;;23.40;95.60;;;;;;5073820;28;20455;-70
2022/06/24 08:25:14;;;;;;;5.13;4.73;;;23.50;95.30;;;;;;5073847;28;20480;-70
2022/06/24 08:27:42;;;;;;;4.50;4.20;;;23.50;95.00;;;;;;5073608;28;20872;-70
2022/06/24 08:30:10;;;;;;;4.60;4.20;;;23.70;94.90;;;;;;5073821;28;20445;-71
2022/06/24 08:32:37;;;;;;;5.37;4.27;;;23.70;94.60;;;;;;5073662;28;20449;-70
2022/06/24 08:35:05;;;;;;;6.13;4.10;;;23.70;94.60;;;;;;5073840;28;20444;-70
2022/06/24 08:37:32;;;;;;;4.23;3.83;;;23.70;94.00;;;;;;5073653;28;20449;-70
2022/06/24 08:39:59;;;;;;;4.80;4.03;;;23.70;94.00;;;;;;5073675;28;20459;-70
2022/06/24 08:42:29;;;;;;;4.83;4.30;;;23.60;94.00;;;;;;5073753;28;20470;-70
2022/06/24 08:44:59;;;;;;;4.23;3.93;;;23.60;93.90;;;;;;5073841;28;20875;-69
2022/06/24 08:47:26;;;;;;;4.80;4.40;;;23.50;93.90;;;;;;5073755;28;20436;-70
2022/06/24 08:49:53;;;;;;;4.97;4.57;;;23.50;94.20;;;;;;5074037;28;20441;-69
2022/06/24 08:52:21;;;;;;;7.30;5.17;;;23.50;94.30;;;;;;5073690;28;20531;-69
2022/06/24 08:54:50;;;;;;;7.00;4.83;;;23.40;94.10;;;;;;5073327;28;20825;-69
2022/06/24 08:57:17;;;;;;;4.20;3.80;;;23.50;94.40;;;;;;5073596;28;20445;-69
2022/06/24 08:59:45;;;;;;;5.90;4.30;;;23.40;93.80;;;;;;5073172;28;20822;-69
2022/06/24 09:02:15;;;;;;;5.03;4.53;;;23.40;93.50;;;;;;5073754;28;20452;-69
2022/06/24 09:04:46;;;;;;;4.80;4.27;;;23.50;94.20;;;;;;5076175;28;20503;-70
2022/06/24 09:07:24;;;;;;;6.30;4.53;;;23.60;93.80;;;;;;5080121;28;20463;-69
2022/06/24 09:09:58;;;;;;;5.00;4.50;;;23.70;94.10;;;;;;5079789;28;20924;-69
2022/06/24 09:12:28;;;;;;;5.07;4.67;;;23.80;93.90;;;;;;5080025;28;20432;-69
2022/06/24 09:14:55;;;;;;;5.10;4.70;;;23.90;93.90;;;;;;5079908;28;20464;-69
2022/06/24 09:17:29;;;;;;;5.90;5.40;;;24.10;94.00;;;;;;5080054;28;20454;-69
2022/06/24 09:20:04;;;;;;;5.43;4.93;;;24.30;93.20;;;;;;5080080;28;20490;-69
2022/06/24 09:22:31;;;;;;;7.20;6.50;;;24.50;92.10;;;;;;5079927;28;20443;-70
2022/06/24 09:25:00;;;;;;;6.83;5.90;;;24.80;91.80;;;;;;5079707;28;21048;-70
2022/06/24 09:27:27;;;;;;;7.53;6.50;;;25.10;90.90;;;;;;5079626;28;20449;-70
2022/06/24 09:29:54;;;;;;;7.33;6.73;;;25.50;90.70;;;;;;5079855;28;20444;-70
2022/06/24 09:32:21;;;;;;;5.70;5.30;;;25.60;86.60;;;;;;5079925;28;20454;-67
2022/06/24 09:35:07;;;;;;;6.60;5.37;;;25.80;88.00;;;;;;5079491;28;20833;-67
2022/06/24 09:37:42;;;;;;;7.00;5.20;;;26.20;90.00;;;;;;5079611;28;20916;-68
2022/06/24 09:40:21;;;;;;;4.47;4.10;;;26.50;84.70;;;;;;5079660;28;20955;-67
2022/06/24 09:42:59;;;;;;;5.07;4.67;;;26.90;83.80;;;;;;5079666;28;20524;-69
2022/06/24 09:45:42;;;;;;;5.33;4.00;;;27.10;82.70;;;;;;5079747;28;20464;-67
2022/06/24 09:48:09;;;;;;;3.70;3.30;;;27.40;78.90;;;;;;5079826;28;20447;-69
2022/06/24 09:50:39;;;;;;;5.90;4.60;;;27.60;79.60;;;;;;5079867;28;20566;-69
2022/06/24 09:53:08;;;;;;;4.47;4.07;;;27.90;74.30;;;;;;5079879;28;20471;-70
2022/06/24 09:55:35;;;;;;;4.27;3.90;;;28.30;71.50;;;;;;5079690;28;20456;-70
2022/06/24 09:58:04;;;;;;;4.07;2.93;;;28.70;72.80;;;;;;5079832;28;20459;-68
2022/06/24 10:00:43;;;;;;;3.90;3.63;;;29.30;69.70;;;;;;5079726;28;20544;-67
2022/06/24 10:03:12;;;;;;;4.40;3.17;;;29.80;67.60;;;;;;5079735;28;20493;-68
2022/06/24 10:05:42;;;;;;;3.67;3.37;;;30.20;63.30;;;;;;5079208;28;21019;-68
2022/06/24 10:08:11;;;;;;;3.80;3.50;;;30.50;62.40;;;;;;5080187;28;20447;-68
2022/06/24 10:10:45;;;;;;;3.97;3.60;;;30.80;60.20;;;;;;5080408;28;20448;-68
2022/06/24 10:13:23;;;;;;;4.67;2.73;;;31.00;57.10;;;;;;5080959;28;20470;-68
2022/06/24 10:15:51;;;;;;;4.13;3.27;;;31.50;55.90;;;;;;5080362;28;20429;-68
2022/06/24 10:18:20;;;;;;;5.70;4.23;;;32.10;54.60;;;;;;5076443;28;20858;-68
2022/06/24 10:20:50;;;;;;;3.03;2.73;;;32.40;51.20;;;;;;5076075;28;20937;-68
2022/06/24 10:23:44;;;;;;;4.73;3.90;;;32.20;50.20;;;;;;5076172;28;20467;-68
2022/06/24 10:26:17;;;;;;;6.10;3.93;;;31.90;50.70;;;;;;5040662;28;20483;-67
2022/06/24 10:29:13;;;;;;;4.30;3.90;;;31.30;52.30;;;;;;5076250;28;20452;-67
2022/06/24 10:32:01;;;;;;;5.90;3.87;;;30.90;54.20;;;;;;5067460;28;20448;-67
2022/06/24 10:34:33;;;;;;;5.80;4.67;;;30.40;54.70;;;;;;5076610;28;20472;-67
2022/06/24 10:37:05;;;;;;;6.40;5.20;;;30.00;57.30;;;;;;5076132;28;20438;-67
2022/06/24 10:39:33;;;;;;;6.07;4.30;;;29.70;58.40;;;;;;5075940;28;20432;-67
2022/06/24 10:42:01;;;;;;;3.63;3.33;;;29.60;58.70;;;;;;5076000;28;20439;-67
2022/06/24 10:44:29;;;;;;;4.67;4.00;;;29.80;59.20;;;;;;5075507;28;20469;-67
2022/06/24 10:47:27;;;;;;;6.77;4.27;;;30.40;55.70;;;;;;5075760;28;20436;-67
2022/06/24 10:50:14;;;;;;;4.07;3.77;;;30.40;55.60;;;;;;5075698;28;20495;-68
2022/06/24 10:52:55;;;;;;;3.30;3.10;;;30.70;55.70;;;;;;5075523;28;20459;-67
2022/06/24 10:55:43;;;;;;;3.63;3.20;;;31.00;53.20;;;;;;5075531;28;20464;-68
2022/06/24 10:58:17;;;;;;;3.00;2.30;;;31.30;50.20;;;;;;5075614;28;20433;-67
2022/06/24 11:00:52;;;;;;;5.10;2.30;;;31.60;49.50;;;;;;5075572;28;20429;-67
2022/06/24 11:03:34;;;;;;;6.40;2.00;;;32.20;47.50;;;;;;5075399;28;20495;-68
2022/06/24 11:06:01;;;;;;;3.00;1.90;;;32.80;46.10;;;;;;5075510;28;20468;-67
2022/06/24 11:08:29;;;;;;;2.30;2.10;;;32.70;44.10;;;;;;5075390;28;20518;-67
2022/06/24 11:10:56;;;;;;;2.40;1.93;;;32.40;43.90;;;;;;5075044;28;20455;-67
2022/06/24 11:13:23;;;;;;;1.60;1.50;;;32.20;44.90;;;;;;5076329;28;21009;-67
2022/06/24 11:15:53;;;;;;;4.03;2.33;;;31.90;44.40;;;;;;5075798;28;20451;-67
2022/06/24 11:18:22;;;;;;;2.27;2.07;;;31.30;44.40;;;;;;5075970;28;20456;-67
2022/06/24 11:20:51;;;;;;;4.17;2.90;;;30.60;46.20;;;;;;5075502;28;20445;-67
2022/06/24 11:23:19;;;;;;;2.40;2.17;;;30.00;49.60;;;;;;5075796;28;20477;-67
2022/06/24 11:25:48;;;;;;;2.50;1.97;;;29.50;50.30;;;;;;5075676;28;20477;-67
2022/06/24 11:28:23;;;;;;;1.97;1.80;;;28.90;50.40;;;;;;5075044;28;20896;-69
2022/06/24 11:30:51;;;;;;;2.90;2.30;;;28.40;53.10;;;;;;5076114;28;20798;-69
2022/06/24 11:33:18;;;;;;;3.43;2.27;;;28.30;54.70;;;;;;5076444;28;20468;-67
2022/06/24 11:35:46;;;;;;;2.27;2.07;;;28.20;55.10;;;;;;5076662;28;20425;-67
2022/06/24 11:38:14;;;;;;;3.60;2.17;;;28.10;55.90;;;;;;5076541;28;20448;-68
2022/06/24 11:40:42;;;;;;;2.40;1.80;;;28.20;56.50;;;;;;5075186;28;20437;-67
2022/06/24 11:43:11;;;;;;;3.47;2.03;;;28.30;55.90;;;;;;5074818;28;20565;-67
2022/06/24 11:45:39;;;;;;;1.57;1.47;;;28.40;53.90;;;;;;5074904;28;20558;-67
2022/06/24 11:48:08;;;;;;;5.20;2.50;;;28.60;53.00;;;;;;5075034;28;20934;-67
2022/06/24 11:50:35;;;;;;;2.60;1.77;;;29.20;53.40;;;;;;5075311;28;20429;-67
2022/06/24 11:53:02;;;;;;;2.90;1.97;;;30.00;50.10;;;;;;5075065;28;20476;-67
2022/06/24 11:55:31;;;;;;;3.40;2.37;;;30.70;49.80;;;;;;5074603;28;20452;-67
2022/06/24 11:58:00;;;;;;;1.97;1.87;;;31.90;47.90;;;;;;5074846;28;20444;-67
2022/06/24 12:00:32;;;;;;;3.83;2.27;;;33.20;45.00;;;;;;5074735;28;20433;-67
2022/06/24 12:03:00;;;;;;;3.97;2.33;;;34.40;42.00;;;;;;5074550;28;20475;-67
2022/06/24 12:05:29;;;;;;;3.10;2.73;;;35.40;38.70;;;;;;5074893;28;20479;-68
2022/06/24 12:07:57;;;;;;;4.33;2.13;;;35.80;38.80;;;;;;5074489;28;20901;-67
2022/06/24 12:10:24;;;;;;;3.53;2.90;;;36.30;37.00;;;;;;5074064;28;20800;-68
2022/06/24 12:12:59;;;;;;;2.93;2.40;;;37.20;35.80;;;;;;5074279;28;20439;-68
2022/06/24 12:15:33;;;;;;;2.20;1.93;;;37.60;33.10;;;;;;5074214;28;20189;-68
2022/06/24 12:18:00;;;;;;;2.90;2.53;;;37.60;32.10;;;;;;5074032;28;20193;-68
2022/06/24 12:20:29;;;;;;;2.50;2.30;;;37.30;32.50;;;;;;5074065;28;20432;-67
2022/06/24 12:23:19;;;;;;;2.50;2.30;;;37.60;31.80;;;;;;5074322;28;20222;-67
2022/06/24 12:25:48;;;;;;;3.40;2.80;;;38.20;30.60;;;;;;5074281;28;20213;-67
2022/06/24 12:28:20;;;;;;;6.00;2.60;;;38.10;30.90;;;;;;5073906;28;20567;-68
2022/06/24 12:30:58;;;;;;;2.50;2.13;;;37.40;32.00;;;;;;5074407;28;20194;-68
2022/06/24 12:33:25;;;;;;;3.50;2.10;;;37.00;32.90;;;;;;5074551;28;20236;-68
2022/06/24 12:36:10;;;;;;;2.80;2.20;;;37.40;32.70;;;;;;5074842;28;20208;-68
2022/06/24 12:38:38;;;;;;;3.53;1.65;;;38.40;31.60;;;;;;5074131;28;20190;-68
2022/06/24 12:41:13;;;;;;;2.33;1.70;;;39.60;30.10;;;;;;5074059;28;20201;-68
2022/06/24 12:43:53;;;;;;;2.72;2.25;;;40.70;27.90;;;;;;5074333;28;20225;-68
2022/06/24 12:46:22;;;;;;;2.13;1.52;;;41.60;26.70;;;;;;5073935;28;20225;-68
2022/06/24 12:51:40;;;;;;;3.33;1.60;;;42.70;26.10;;;;;;5074148;28;20228;-68
2022/06/24 12:54:07;;;;;;;2.67;1.30;;;43.30;22.70;;;;;;5074810;28;20237;-69
2022/06/24 12:56:34;;;;;;;4.28;1.58;;;43.70;22.30;;;;;;5075465;28;20201;-70
2022/06/24 12:59:01;;;;;;;3.50;1.52;;;44.00;23.40;;;;;;5075382;28;20186;-69
2022/06/24 13:01:31;;;;;;;3.42;1.67;;;44.40;22.20;;;;;;5073834;28;20186;-69
2022/06/24 13:03:58;;;;;;;1.98;1.27;;;44.90;22.70;;;;;;5073503;28;20387;-70
2022/06/24 13:06:25;;;;;;;3.30;1.55;;;45.30;21.30;;;;;;5073015;28;20217;-69